Butler County Regional, OH

11:14 AM EDT on March 26, 2017 (GMT -0400)
Butler County Regional | | Change Station

Elev 630 ft 39.36 °N, 84.52 °W | Updated 10 minutes ago

Light Rain
Light Rain Mist
58 °F
Feels Like 58 °F
N
7
Wind Variable Wind from South

Today
High -- | Low -- °F
--% Chance of Precip.
Yesterday
High -- | Low -- °F
Precip. -- in
Pressure 30.00 in
Visibility 5.0 miles
Clouds Few 1600 ft
Scattered Clouds 4200 ft
Overcast 8000 ft
Dew Point 57 °F
Humidity 97%
Rainfall 0.05 in
Snow Depth Not available.
7:31 AM 7:56 PM
Waning Crescent, 3% visible
SPECI KHAO 261504Z AUTO 19006KT 5SM -RA BR FEW016 SCT042 OVC080 14/14 A3000 RMK AO2 P0001 T01440139
Pressure 30.00 in
Visibility 5.0 miles
Clouds Few 1600 ft
Scattered Clouds 4200 ft
Overcast 8000 ft
Dew Point 57 °F
Humidity 97%
Rainfall 0.05 in
Snow Depth Not available.
7:31 AM 7:56 PM
Waning Crescent, 3% visible
SPECI KHAO 261504Z AUTO 19006KT 5SM -RA BR FEW016 SCT042 OVC080 14/14 A3000 RMK AO2 P0001 T01440139

Get Severe Weather Alerts

Thanks for signing up!

Be on the lookout for a verification email in your inbox.

You'll start receiving the daily forecast at 8 AM.

×

10-Day Weather Forecast

Almanac

Astronomy

Mar. 26, 2017 Rise Set
Actual Time
Civil Twilight
Nautical Twilight
Astronomical Twilight
Moon
Length of Visible Light
Length of Day
Tomorrow will be .
, % of the Moon is Illuminated

Today's Extremes

State Highs State Lows

Community

WunderPhotos

Upload Photos

1,962,540 photos uploaded!

WunderBlog® & News

Nearby

Air Quality

  Air Quality AQ Index Pollutant
Not available.

Snow Depth

Station Depth Elevation

Earthquake Activity

City Distance Mag. Time & Date
Minimum magnitude displayed is 2.5.

Earthquake Activity

City Distance Mag. Time & Date
Minimum magnitude displayed is 2.5.

Coastal Water Temperatures

Place Temperature

Stations

Nearby Weather Stations

Station Location Temp. Windchill Dew Point Humidity Wind Precip. Elev Updated Type
                   

Watches & Warnings

There are currently no watches in effect.